createdAt,value
2022-09-06T04:15:33.373Z,15.68
2022-09-06T04:17:59.843Z,15.76
2022-09-06T04:20:26.433Z,15.66
2022-09-06T04:22:53.625Z,15.74
2022-09-06T04:25:20.131Z,15.77
2022-09-06T04:27:46.631Z,15.86
2022-09-06T04:30:13.179Z,15.91
2022-09-06T04:32:39.647Z,15.93
2022-09-06T04:35:06.545Z,15.85
2022-09-06T04:37:33.018Z,15.81
2022-09-06T04:40:03.310Z,15.79
2022-09-06T04:42:30.049Z,15.79
2022-09-06T04:44:56.524Z,15.57
2022-09-06T04:47:23.158Z,15.47
2022-09-06T04:49:49.619Z,15.29
2022-09-06T04:52:16.726Z,15.31
2022-09-06T04:54:43.551Z,15.42
2022-09-06T04:57:10.787Z,15.48
2022-09-06T04:59:37.333Z,15.43
2022-09-06T05:02:04.023Z,15.33
2022-09-06T05:04:30.567Z,15.36
2022-09-06T05:07:02.229Z,15.28
2022-09-06T05:09:29.078Z,15.31
2022-09-06T05:11:58.057Z,15.26
2022-09-06T05:14:24.574Z,15.16
2022-09-06T05:16:51.445Z,15.14
2022-09-06T05:19:19.075Z,15.20
2022-09-06T05:21:45.873Z,15.20
2022-09-06T05:24:13.638Z,15.21
2022-09-06T05:26:40.106Z,15.06
2022-09-06T05:29:06.610Z,15.02
2022-09-06T05:31:34.715Z,14.92
2022-09-06T05:34:01.285Z,14.98
2022-09-06T05:36:29.957Z,14.89
2022-09-06T05:38:58.676Z,14.92
2022-09-06T05:41:26.171Z,14.99
2022-09-06T05:43:54.834Z,15.04
2022-09-06T05:46:21.341Z,15.14
2022-09-06T05:48:55.385Z,15.04
2022-09-06T05:51:21.988Z,15.10
2022-09-06T05:53:48.597Z,15.03
2022-09-06T05:56:15.475Z,15.15
2022-09-06T05:58:42.112Z,15.10
2022-09-06T06:01:16.246Z,15.02
2022-09-06T06:03:43.580Z,14.84
2022-09-06T06:06:10.163Z,14.95
2022-09-06T06:08:37.770Z,15.04
2022-09-06T06:11:04.379Z,15.03
2022-09-06T06:13:34.936Z,15.17
2022-09-06T06:16:03.274Z,15.10
2022-09-06T06:18:29.808Z,14.92
2022-09-06T06:21:22.907Z,15.12
2022-09-06T06:23:51.547Z,15.26
2022-09-06T06:26:18.058Z,15.26
2022-09-06T06:28:44.883Z,15.30
2022-09-06T06:31:12.247Z,15.31
2022-09-06T06:33:40.299Z,15.39
2022-09-06T06:36:13.242Z,15.41
2022-09-06T06:38:41.716Z,15.48
2022-09-06T06:41:09.831Z,15.45
2022-09-06T06:43:37.720Z,15.51
2022-09-06T06:46:06.244Z,15.57
2022-09-06T06:48:32.814Z,15.53
2022-09-06T06:50:59.295Z,15.53
2022-09-06T06:53:26.284Z,15.57
2022-09-06T06:55:52.880Z,15.39
2022-09-06T06:58:20.015Z,15.63
2022-09-06T07:00:46.887Z,15.58
2022-09-06T07:03:13.711Z,15.64
2022-09-06T07:08:27.255Z,15.63
2022-09-06T07:10:53.944Z,15.49
2022-09-06T07:13:20.799Z,15.71
2022-09-06T07:15:47.267Z,15.77
2022-09-06T07:18:16.192Z,15.75
2022-09-06T07:26:18.321Z,15.97
2022-09-06T07:28:46.494Z,16.10
2022-09-06T07:33:59.709Z,16.05
2022-09-06T07:36:26.279Z,16.12
2022-09-06T07:38:53.583Z,16.25
2022-09-06T07:41:20.891Z,16.13
2022-09-06T07:43:47.569Z,16.25
2022-09-06T07:46:16.845Z,16.28
2022-09-06T07:48:45.699Z,16.37
2022-09-06T07:51:15.152Z,16.45
2022-09-06T07:53:43.622Z,16.30
2022-09-06T07:56:12.130Z,16.34
2022-09-06T07:58:40.068Z,16.46
2022-09-06T08:01:28.126Z,16.51
2022-09-06T08:03:54.795Z,16.43
2022-09-06T08:06:22.895Z,16.61
2022-09-06T08:08:58.963Z,16.76
2022-09-06T08:11:28.008Z,16.67
2022-09-06T08:13:55.957Z,16.71
2022-09-06T08:18:55.124Z,16.97
2022-09-06T08:21:23.653Z,17.03
2022-09-06T08:23:52.971Z,16.94
2022-09-06T08:26:22.353Z,16.96
2022-09-06T08:28:57.404Z,17.11
2022-09-06T08:31:24.513Z,17.26
2022-09-06T08:33:51.878Z,17.30
2022-09-06T08:36:18.589Z,17.31
2022-09-06T08:38:45.832Z,17.49
2022-09-06T08:41:37.287Z,17.42
2022-09-06T08:47:00.227Z,17.50
2022-09-06T08:49:31.153Z,17.59
2022-09-06T08:52:45.335Z,17.78
2022-09-06T08:55:37.380Z,17.98
2022-09-06T08:58:43.258Z,17.97
2022-09-06T09:01:23.099Z,17.94
2022-09-06T09:03:57.843Z,18.10
2022-09-06T09:06:26.569Z,18.16
2022-09-06T09:09:04.110Z,18.16
2022-09-06T09:11:33.423Z,18.20
2022-09-06T09:14:12.046Z,18.45
2022-09-06T09:16:38.661Z,18.69
2022-09-06T09:19:06.350Z,18.70
2022-09-06T09:21:36.430Z,18.78
2022-09-06T09:24:11.979Z,18.99
2022-09-06T09:26:51.096Z,18.98
2022-09-06T09:29:18.163Z,19.05
2022-09-06T09:31:54.164Z,19.14
2022-09-06T09:34:34.287Z,19.21
2022-09-06T09:40:04.288Z,19.40
2022-09-06T09:42:36.710Z,19.44
2022-09-06T09:45:27.178Z,19.49
2022-09-06T09:47:53.876Z,19.73
2022-09-06T09:50:34.953Z,19.79
2022-09-06T09:53:14.751Z,19.91
2022-09-06T09:55:42.252Z,20.17
2022-09-06T09:58:20.467Z,19.95
2022-09-06T10:00:47.063Z,19.98
2022-09-06T10:03:15.916Z,20.31
2022-09-06T10:05:58.936Z,20.12
2022-09-06T10:08:33.299Z,20.27
2022-09-06T10:11:00.741Z,20.44
2022-09-06T10:13:29.640Z,20.54
2022-09-06T10:15:58.754Z,20.55
2022-09-06T10:18:41.687Z,21.00
2022-09-06T10:21:23.958Z,20.86
2022-09-06T10:26:55.562Z,21.20
2022-09-06T10:29:37.160Z,21.53
2022-09-06T10:32:30.943Z,21.75
2022-09-06T10:35:05.746Z,22.21
2022-09-06T10:38:05.733Z,22.48
2022-09-06T10:41:00.635Z,22.84
2022-09-06T10:43:38.002Z,23.06
2022-09-06T10:46:14.614Z,23.30
2022-09-06T10:48:48.523Z,22.75
2022-09-06T10:51:42.392Z,23.45
2022-09-06T10:54:12.174Z,23.27
2022-09-06T10:56:45.330Z,24.03
2022-09-06T11:02:37.941Z,22.69
2022-09-06T11:10:55.563Z,22.91
2022-09-06T11:13:28.300Z,22.69
2022-09-06T11:16:06.136Z,22.84
2022-09-06T11:18:42.928Z,22.68
2022-09-06T11:21:32.891Z,22.96
2022-09-06T11:24:15.235Z,23.25
2022-09-06T11:27:21.877Z,23.28
2022-09-06T11:29:56.448Z,23.38
2022-09-06T11:32:28.807Z,23.08
2022-09-06T11:34:58.920Z,23.27
2022-09-06T11:37:30.958Z,23.23
2022-09-06T11:42:54.616Z,23.18
2022-09-06T11:45:51.597Z,23.34
2022-09-06T11:48:34.258Z,23.52
2022-09-06T11:51:12.370Z,23.66
2022-09-06T11:53:51.083Z,23.82
2022-09-06T11:57:02.350Z,24.15
2022-09-06T12:00:03.082Z,23.60
2022-09-06T12:10:58.176Z,24.33
2022-09-06T12:17:12.233Z,24.08
2022-09-06T12:24:31.745Z,24.31
2022-09-06T12:27:18.325Z,24.67
2022-09-06T12:30:09.866Z,24.52
2022-09-06T12:33:37.170Z,24.62
2022-09-06T12:36:59.623Z,24.59
2022-09-06T12:40:04.788Z,24.69
2022-09-06T12:42:50.633Z,24.89
2022-09-06T12:45:30.685Z,24.76
2022-09-06T12:52:46.376Z,25.11
2022-09-06T12:58:58.088Z,24.78
2022-09-06T13:01:53.232Z,24.77
2022-09-06T13:04:42.264Z,24.76
2022-09-06T13:07:21.325Z,24.98
2022-09-06T13:10:03.153Z,24.90
2022-09-06T13:19:50.718Z,25.30
2022-09-06T13:22:49.713Z,25.53
2022-09-06T13:25:25.404Z,25.48
2022-09-06T13:27:58.300Z,25.48
2022-09-06T13:30:35.625Z,25.54
2022-09-06T13:33:03.987Z,25.47
2022-09-06T13:35:37.477Z,25.05
2022-09-06T13:38:33.000Z,25.12
2022-09-06T13:41:16.726Z,25.30
2022-09-06T13:43:45.810Z,25.41
2022-09-06T13:46:12.358Z,25.49
2022-09-06T13:48:44.187Z,25.62
2022-09-06T13:51:11.544Z,25.58
2022-09-06T13:53:38.016Z,25.55
2022-09-06T13:56:08.643Z,25.59
2022-09-06T13:58:36.115Z,25.44
2022-09-06T14:01:04.100Z,25.38
2022-09-06T14:03:32.787Z,25.68
2022-09-06T14:06:01.001Z,25.71
2022-09-06T14:08:49.295Z,25.67
2022-09-06T14:11:17.726Z,25.59
2022-09-06T14:13:44.365Z,25.49
2022-09-06T14:16:12.086Z,25.67
2022-09-06T14:18:38.756Z,25.44
2022-09-06T14:21:05.396Z,25.73
2022-09-06T14:23:31.928Z,25.79
2022-09-06T14:26:00.776Z,25.60
2022-09-06T14:28:28.161Z,25.71
2022-09-06T14:30:55.041Z,25.84
2022-09-06T14:33:21.728Z,25.81
2022-09-06T14:35:49.587Z,25.90
2022-09-06T14:38:16.058Z,25.96
2022-09-06T14:40:45.481Z,25.88
2022-09-06T14:43:12.082Z,26.19
2022-09-06T14:45:38.840Z,26.34
2022-09-06T14:48:05.769Z,25.99
2022-09-06T14:50:32.561Z,26.16
2022-09-06T14:52:59.289Z,25.99
2022-09-06T14:55:28.085Z,25.66
2022-09-06T14:57:55.221Z,25.67
2022-09-06T15:00:22.673Z,25.77
2022-09-06T15:02:49.206Z,25.80
2022-09-06T15:05:16.161Z,25.88
2022-09-06T15:07:43.038Z,25.56
2022-09-06T15:10:10.835Z,25.27
2022-09-06T15:12:38.031Z,25.16
2022-09-06T15:15:05.527Z,25.52
2022-09-06T15:17:34.185Z,25.34
2022-09-06T15:20:00.861Z,25.16
2022-09-06T15:22:27.719Z,25.14
2022-09-06T15:24:54.203Z,24.88
2022-09-06T15:27:20.806Z,24.86
2022-09-06T15:29:47.479Z,24.61
2022-09-06T15:32:21.189Z,24.56
2022-09-06T15:34:47.684Z,24.53
2022-09-06T15:37:14.187Z,24.40
2022-09-06T15:39:44.969Z,24.43
2022-09-06T15:42:11.696Z,24.61
2022-09-06T15:44:38.321Z,24.56
2022-09-06T15:47:04.970Z,24.53
2022-09-06T15:49:42.555Z,24.50
2022-09-06T15:52:09.458Z,24.37
2022-09-06T15:54:54.708Z,24.34
2022-09-06T15:57:21.218Z,24.28
2022-09-06T15:59:47.844Z,24.25
2022-09-06T16:02:14.794Z,24.19
2022-09-06T16:04:41.483Z,23.86
2022-09-06T16:07:08.079Z,23.88
2022-09-06T16:09:35.023Z,23.64
2022-09-06T16:12:01.766Z,23.49
2022-09-06T16:14:28.857Z,23.66
2022-09-06T16:16:56.222Z,23.64
2022-09-06T16:19:24.084Z,23.52
2022-09-06T16:21:50.598Z,23.36
2022-09-06T16:24:18.474Z,23.31
2022-09-06T16:26:49.013Z,23.22
2022-09-06T16:29:17.962Z,23.17
2022-09-06T16:31:44.739Z,23.02
2022-09-06T16:34:12.491Z,22.86
2022-09-06T16:36:39.333Z,22.83
2022-09-06T16:39:06.877Z,22.78
2022-09-06T16:41:42.564Z,22.78
2022-09-06T16:44:14.369Z,22.87
2022-09-06T16:46:41.731Z,22.84
2022-09-06T16:49:08.859Z,21.98
2022-09-06T16:51:35.589Z,20.86
2022-09-06T16:54:02.625Z,20.56
2022-09-06T16:56:33.452Z,20.57
2022-09-06T16:59:02.646Z,20.39
2022-09-06T17:01:31.427Z,19.91
2022-09-06T17:04:00.796Z,18.79
2022-09-06T17:06:38.299Z,18.54
2022-09-06T17:09:05.207Z,17.65
2022-09-06T17:11:31.990Z,17.20
2022-09-06T17:13:58.579Z,16.44
2022-09-06T17:16:44.309Z,16.06
2022-09-06T17:19:10.935Z,15.76
2022-09-06T17:21:39.085Z,15.73
2022-09-06T17:24:06.924Z,15.67
2022-09-06T17:26:36.320Z,15.68
2022-09-06T17:29:03.324Z,16.02
2022-09-06T17:31:30.209Z,15.92
2022-09-06T17:33:59.441Z,15.70
2022-09-06T17:36:30.048Z,15.42
2022-09-06T17:39:04.866Z,15.26
2022-09-06T17:41:34.033Z,15.28
2022-09-06T17:44:10.977Z,15.20
2022-09-06T17:46:47.760Z,15.23
2022-09-06T17:49:37.258Z,15.29
2022-09-06T17:52:03.949Z,15.46
2022-09-06T17:54:31.699Z,15.49
2022-09-06T17:56:58.260Z,15.69
2022-09-06T17:59:25.146Z,15.76
2022-09-06T18:01:52.374Z,15.93
2022-09-06T18:04:20.970Z,15.81
2022-09-06T18:06:47.823Z,15.86
2022-09-06T18:09:30.079Z,15.82
2022-09-06T18:11:57.187Z,15.63
2022-09-06T18:14:23.709Z,15.75
2022-09-06T18:16:51.993Z,15.34
2022-09-06T18:19:18.826Z,15.40
2022-09-06T18:21:46.149Z,15.62
2022-09-06T18:24:20.154Z,15.46
2022-09-06T18:26:46.853Z,15.33
2022-09-06T18:29:16.415Z,15.39
2022-09-06T18:31:43.593Z,15.44
2022-09-06T18:34:10.720Z,15.68
2022-09-06T18:36:39.083Z,15.84
2022-09-06T18:39:06.344Z,15.76
2022-09-06T18:41:52.744Z,15.67
2022-09-06T18:44:19.504Z,15.67
2022-09-06T18:46:47.100Z,15.80
2022-09-06T18:49:15.114Z,15.69
2022-09-06T18:51:42.304Z,15.58
2022-09-06T18:54:09.908Z,15.62
2022-09-06T18:56:36.421Z,15.65
2022-09-06T18:59:05.250Z,15.55
2022-09-06T19:01:32.873Z,15.53
2022-09-06T19:04:00.918Z,15.58
2022-09-06T19:06:29.276Z,15.40
2022-09-06T19:09:00.571Z,15.53
2022-09-06T19:11:27.836Z,15.40
2022-09-06T19:13:55.970Z,15.34
2022-09-06T19:16:27.147Z,15.24
2022-09-06T19:18:56.039Z,15.22
2022-09-06T19:21:25.362Z,15.14
2022-09-06T19:24:00.506Z,15.07
2022-09-06T19:26:31.125Z,15.04
2022-09-06T19:28:59.823Z,15.02
2022-09-06T19:31:32.242Z,14.91
2022-09-06T19:33:59.737Z,14.84
2022-09-06T19:36:27.997Z,14.89
2022-09-06T19:39:06.598Z,14.88
2022-09-06T19:41:39.214Z,14.93
2022-09-06T19:44:08.415Z,14.89
2022-09-06T19:46:35.655Z,15.00
2022-09-06T19:49:02.463Z,14.94
2022-09-06T19:51:37.228Z,14.97
2022-09-06T19:54:04.094Z,14.96
2022-09-06T19:56:33.708Z,14.94
2022-09-06T19:59:06.104Z,14.94
2022-09-06T20:01:34.158Z,15.01
2022-09-06T20:04:03.298Z,14.99
2022-09-06T20:06:30.628Z,14.86
2022-09-06T20:08:58.721Z,14.76
2022-09-06T20:11:28.083Z,14.65
2022-09-06T20:13:55.051Z,14.73
2022-09-06T20:16:22.065Z,14.67
2022-09-06T20:18:49.063Z,14.75
2022-09-06T20:21:18.203Z,14.73
2022-09-06T20:23:49.610Z,14.68
2022-09-06T20:26:16.810Z,14.65
2022-09-06T20:28:44.102Z,14.68
2022-09-06T20:31:16.440Z,14.70
2022-09-06T20:33:48.506Z,14.66
2022-09-06T20:36:16.503Z,14.66
2022-09-06T20:38:44.508Z,14.60
2022-09-06T20:41:16.739Z,14.48
2022-09-06T20:43:43.477Z,14.25
2022-09-06T20:46:11.219Z,14.14
2022-09-06T20:48:43.594Z,14.16
2022-09-06T20:51:18.890Z,14.34
2022-09-06T20:53:52.927Z,14.24
2022-09-06T20:56:22.746Z,14.30
2022-09-06T20:58:54.555Z,14.15
2022-09-06T21:01:26.150Z,14.20
2022-09-06T21:03:57.996Z,14.30
2022-09-06T21:06:25.988Z,14.30
2022-09-06T21:08:53.291Z,14.33
2022-09-06T21:11:20.498Z,14.29
2022-09-06T21:13:51.913Z,14.25
2022-09-06T21:16:24.419Z,14.24
2022-09-06T21:18:56.711Z,14.26
2022-09-06T21:21:25.260Z,14.24
2022-09-06T21:23:51.883Z,14.21
2022-09-06T21:26:19.262Z,14.20
2022-09-06T21:28:47.534Z,14.24
2022-09-06T21:31:14.292Z,14.26
2022-09-06T21:33:43.095Z,14.10
2022-09-06T21:36:12.111Z,14.04
2022-09-06T21:38:42.159Z,13.96
2022-09-06T21:41:10.252Z,13.95
2022-09-06T21:43:36.901Z,13.85
2022-09-06T21:46:05.469Z,13.88
2022-09-06T21:48:32.536Z,13.77
2022-09-06T21:50:59.038Z,13.95
2022-09-06T21:53:27.088Z,13.96
2022-09-06T21:56:00.143Z,13.97
2022-09-06T21:58:27.034Z,13.85
